createdAt,value
2018-12-06T00:00:27.158Z,59.67
2018-12-06T00:02:56.363Z,59.73
2018-12-06T00:05:25.612Z,59.57
2018-12-06T00:08:05.526Z,60.07
2018-12-06T00:10:34.387Z,59.89
2018-12-06T00:13:03.600Z,59.33
2018-12-06T00:15:32.797Z,60.16
2018-12-06T00:18:01.924Z,60.48
2018-12-06T00:20:31.246Z,60.36
2018-12-06T00:23:00.075Z,60.20
2018-12-06T00:25:29.174Z,60.14
2018-12-06T00:27:58.276Z,59.92
2018-12-06T00:30:35.823Z,59.25
2018-12-06T00:33:05.457Z,58.90
2018-12-06T00:35:34.626Z,58.74
2018-12-06T00:38:03.795Z,58.62
2018-12-06T00:40:33.161Z,58.83
2018-12-06T00:43:02.306Z,59.14
2018-12-06T00:45:31.187Z,59.76
2018-12-06T00:48:00.215Z,59.22
2018-12-06T00:50:29.485Z,60.13
2018-12-06T00:52:58.348Z,60.53
2018-12-06T00:55:27.175Z,60.21
2018-12-06T00:57:56.477Z,60.59
2018-12-06T01:00:25.532Z,60.17
2018-12-06T01:02:54.739Z,60.36
2018-12-06T01:05:23.965Z,60.03
2018-12-06T01:07:53.060Z,60.16
2018-12-06T01:10:21.961Z,60.76
2018-12-06T01:12:50.991Z,60.33
2018-12-06T01:15:19.945Z,60.03
2018-12-06T01:17:49.179Z,59.86
2018-12-06T01:20:18.326Z,59.87
2018-12-06T01:22:47.473Z,60.19
2018-12-06T01:25:16.735Z,60.48
2018-12-06T01:27:45.819Z,60.27
2018-12-06T01:30:14.756Z,60.36
2018-12-06T01:32:43.713Z,60.00
2018-12-06T01:35:12.991Z,59.93
2018-12-06T01:37:42.128Z,60.42
2018-12-06T01:40:11.497Z,60.59
2018-12-06T01:42:40.699Z,60.73
2018-12-06T01:45:09.665Z,61.20
2018-12-06T01:47:38.512Z,61.03
2018-12-06T01:50:07.715Z,60.72
2018-12-06T01:52:36.879Z,60.53
2018-12-06T01:55:06.297Z,60.37
2018-12-06T01:57:35.528Z,60.09
2018-12-06T02:00:05.020Z,60.00
2018-12-06T02:02:34.284Z,59.79
2018-12-06T02:05:03.395Z,59.96
2018-12-06T02:07:32.528Z,59.70
2018-12-06T02:10:01.641Z,60.06
2018-12-06T02:12:30.575Z,60.36
2018-12-06T02:14:59.824Z,60.39
2018-12-06T02:17:29.185Z,60.21
2018-12-06T02:19:58.448Z,60.62
2018-12-06T02:22:27.376Z,60.50
2018-12-06T02:24:56.633Z,59.88
2018-12-06T02:27:25.738Z,60.59
2018-12-06T02:29:54.833Z,60.59
2018-12-06T02:32:24.719Z,60.62
2018-12-06T02:34:53.666Z,60.29
2018-12-06T02:37:22.899Z,61.07
2018-12-06T02:39:51.769Z,61.15
2018-12-06T02:42:20.885Z,60.75
2018-12-06T02:44:50.203Z,60.13
2018-12-06T02:47:19.271Z,60.21
2018-12-06T02:49:48.496Z,59.96
2018-12-06T02:52:17.623Z,60.18
2018-12-06T02:54:46.703Z,60.00
2018-12-06T02:57:15.998Z,59.45
2018-12-06T02:59:45.184Z,59.75
2018-12-06T03:02:14.485Z,59.69
2018-12-06T03:04:43.783Z,59.54
2018-12-06T03:07:12.985Z,59.55
2018-12-06T03:09:42.308Z,59.23
2018-12-06T03:12:11.525Z,59.78
2018-12-06T03:14:40.770Z,59.65
2018-12-06T03:17:09.721Z,59.85
2018-12-06T03:19:38.963Z,59.36
2018-12-06T03:22:08.008Z,60.19
2018-12-06T03:24:37.100Z,59.68
2018-12-06T03:27:06.352Z,59.46
2018-12-06T03:29:35.648Z,59.99
2018-12-06T03:32:04.934Z,60.50
2018-12-06T03:34:33.752Z,60.11
2018-12-06T03:37:02.996Z,60.30
2018-12-06T03:39:31.967Z,59.84
2018-12-06T03:42:01.208Z,59.80
2018-12-06T03:44:32.501Z,60.60
2018-12-06T03:47:01.757Z,60.41
2018-12-06T03:49:30.903Z,60.83
2018-12-06T03:51:59.799Z,60.30
2018-12-06T03:54:28.712Z,59.90
2018-12-06T03:56:57.755Z,60.03
2018-12-06T03:59:26.766Z,60.82
2018-12-06T04:01:56.016Z,60.62
2018-12-06T04:04:25.224Z,61.00
2018-12-06T04:06:54.440Z,60.99
2018-12-06T04:09:23.666Z,60.74
2018-12-06T04:11:52.768Z,60.96
2018-12-06T04:14:21.907Z,60.78
2018-12-06T04:16:51.012Z,60.24
2018-12-06T04:19:20.191Z,60.36
2018-12-06T04:21:49.309Z,60.31
2018-12-06T04:24:18.396Z,60.88
2018-12-06T04:26:47.591Z,59.82
2018-12-06T04:29:16.541Z,60.82
2018-12-06T04:31:45.452Z,61.26
2018-12-06T04:34:14.629Z,61.83
2018-12-06T04:36:43.813Z,61.06
2018-12-06T04:39:12.764Z,61.26
2018-12-06T04:41:41.944Z,61.45
2018-12-06T04:44:11.057Z,61.71
2018-12-06T04:46:40.140Z,61.92
2018-12-06T04:49:41.219Z,62.11
2018-12-06T04:52:10.343Z,62.06
2018-12-06T04:54:39.531Z,61.97
2018-12-06T04:57:08.556Z,62.01
2018-12-06T04:59:37.712Z,62.24
2018-12-06T05:02:06.996Z,62.04
2018-12-06T05:04:36.479Z,62.06
2018-12-06T05:07:05.612Z,62.98
2018-12-06T05:09:34.519Z,62.94
2018-12-06T05:12:03.748Z,62.53
2018-12-06T05:14:32.752Z,62.50
2018-12-06T05:17:01.887Z,61.88
2018-12-06T05:19:30.656Z,62.22
2018-12-06T05:21:59.763Z,62.29
2018-12-06T05:24:28.846Z,62.54
2018-12-06T05:26:58.158Z,63.11
2018-12-06T05:29:27.315Z,62.01
2018-12-06T05:31:56.400Z,62.17
2018-12-06T05:34:25.614Z,63.16
2018-12-06T05:36:54.735Z,62.92
2018-12-06T05:39:24.020Z,62.92
2018-12-06T05:41:53.023Z,62.30
2018-12-06T05:44:22.096Z,63.08
2018-12-06T05:46:51.200Z,63.13
2018-12-06T05:49:20.397Z,63.23
2018-12-06T05:51:49.481Z,62.76
2018-12-06T05:54:18.510Z,63.23
2018-12-06T05:56:47.663Z,63.37
2018-12-06T05:59:16.592Z,62.81
2018-12-06T06:01:45.766Z,62.51
2018-12-06T06:04:14.692Z,62.98
2018-12-06T06:06:43.884Z,62.84
2018-12-06T06:09:13.096Z,62.51
2018-12-06T06:11:42.004Z,62.33
2018-12-06T06:14:11.203Z,62.50
2018-12-06T06:16:40.138Z,62.55
2018-12-06T06:19:09.311Z,62.27
2018-12-06T06:21:38.496Z,62.16
2018-12-06T06:24:07.618Z,62.42
2018-12-06T06:26:36.787Z,62.46
2018-12-06T06:29:05.900Z,62.06
2018-12-06T06:31:35.036Z,62.64
2018-12-06T06:34:03.883Z,62.43
2018-12-06T06:36:33.022Z,61.50
2018-12-06T06:39:01.844Z,61.71
2018-12-06T06:41:31.063Z,61.55
2018-12-06T06:43:59.783Z,61.83
2018-12-06T06:46:28.687Z,61.74
2018-12-06T06:48:57.879Z,62.61
2018-12-06T06:51:27.122Z,61.94
2018-12-06T06:53:56.331Z,62.19
2018-12-06T06:56:25.438Z,62.24
2018-12-06T06:58:54.403Z,61.67
2018-12-06T07:01:23.299Z,61.33
2018-12-06T07:03:52.259Z,61.59
2018-12-06T07:06:21.542Z,61.53
2018-12-06T07:08:50.737Z,61.24
2018-12-06T07:11:19.979Z,61.28
2018-12-06T07:13:49.227Z,61.25
2018-12-06T07:16:18.431Z,60.39
2018-12-06T07:18:47.650Z,60.25
2018-12-06T07:21:16.790Z,59.89
2018-12-06T07:23:45.669Z,59.92
2018-12-06T07:26:14.848Z,59.76
2018-12-06T07:28:44.253Z,58.16
2018-12-06T07:31:13.451Z,58.02
2018-12-06T07:33:42.414Z,56.93
2018-12-06T07:36:11.382Z,56.73
2018-12-06T07:38:40.588Z,57.20
2018-12-06T07:41:09.445Z,56.74
2018-12-06T07:43:38.574Z,56.00
2018-12-06T07:49:00.174Z,56.25
2018-12-06T07:51:28.995Z,56.00
2018-12-06T07:53:58.159Z,56.03
2018-12-06T07:56:26.964Z,56.20
2018-12-06T07:58:55.799Z,55.34
2018-12-06T08:01:24.930Z,55.24
2018-12-06T08:03:54.160Z,53.57
2018-12-06T08:06:23.121Z,53.89
2018-12-06T08:08:52.204Z,53.64
2018-12-06T08:11:21.052Z,52.00
2018-12-06T08:13:50.228Z,52.41
2018-12-06T08:16:19.567Z,53.46
2018-12-06T08:18:48.619Z,53.49
2018-12-06T08:21:17.527Z,53.00
2018-12-06T08:23:46.874Z,52.37
2018-12-06T08:26:15.952Z,52.61
2018-12-06T08:28:45.112Z,52.73
2018-12-06T08:31:14.271Z,52.99
2018-12-06T08:33:43.455Z,52.73
2018-12-06T08:36:12.550Z,52.27
2018-12-06T08:38:41.643Z,52.20
2018-12-06T08:41:10.623Z,52.14
2018-12-06T08:43:39.771Z,51.73
2018-12-06T08:46:08.679Z,52.15
2018-12-06T08:48:37.860Z,51.88
2018-12-06T08:51:07.219Z,51.86
2018-12-06T08:53:36.030Z,51.52
2018-12-06T08:56:05.211Z,52.01
2018-12-06T08:58:34.379Z,52.01
2018-12-06T09:01:03.530Z,52.43
2018-12-06T09:03:32.524Z,51.69
2018-12-06T09:06:01.828Z,51.81
2018-12-06T09:08:30.933Z,51.09
2018-12-06T09:10:59.999Z,49.94
2018-12-06T09:13:29.144Z,49.87
2018-12-06T09:15:57.987Z,48.63
2018-12-06T09:18:27.104Z,49.42
2018-12-06T09:20:56.196Z,49.07
2018-12-06T09:23:25.291Z,49.30
2018-12-06T09:25:54.031Z,49.87
2018-12-06T09:28:23.340Z,49.20
2018-12-06T09:30:52.376Z,49.87
2018-12-06T09:33:21.536Z,49.37
2018-12-06T09:35:50.379Z,49.46
2018-12-06T09:38:19.540Z,50.01
2018-12-06T09:40:48.804Z,51.31
2018-12-06T09:43:17.829Z,50.63
2018-12-06T09:45:47.055Z,50.88
2018-12-06T09:48:16.238Z,50.29
2018-12-06T09:50:45.424Z,51.76
2018-12-06T09:53:14.669Z,51.72
2018-12-06T09:55:43.448Z,50.43
2018-12-06T09:58:12.482Z,50.58
2018-12-06T10:00:41.293Z,50.57
2018-12-06T10:03:10.197Z,49.54
2018-12-06T10:05:39.176Z,47.59
2018-12-06T10:08:08.053Z,47.19
2018-12-06T10:10:37.003Z,46.95
2018-12-06T10:13:05.923Z,47.96
2018-12-06T10:15:34.886Z,48.34
2018-12-06T10:18:03.724Z,45.31
2018-12-06T10:20:32.680Z,43.31
2018-12-06T10:23:01.507Z,41.64
2018-12-06T10:25:30.374Z,43.60
2018-12-06T10:27:59.198Z,42.53
2018-12-06T10:30:28.049Z,40.21
2018-12-06T10:32:56.967Z,36.46
2018-12-06T10:35:25.932Z,34.56
2018-12-06T10:37:54.739Z,35.24
2018-12-06T10:40:23.610Z,35.41
2018-12-06T10:42:52.540Z,33.62
2018-12-06T10:45:21.458Z,29.39
2018-12-06T10:47:50.574Z,28.50
2018-12-06T10:50:19.412Z,30.20
2018-12-06T10:52:48.381Z,28.81
2018-12-06T10:55:18.352Z,29.27
2018-12-06T10:57:47.476Z,27.70
2018-12-06T11:00:21.371Z,30.16
2018-12-06T11:02:52.496Z,30.46
2018-12-06T11:05:21.651Z,31.66
2018-12-06T11:07:50.906Z,33.35
2018-12-06T11:10:19.744Z,36.23
2018-12-06T11:12:48.741Z,37.26
2018-12-06T11:15:17.575Z,35.79
2018-12-06T11:17:46.482Z,34.60
2018-12-06T11:20:15.472Z,30.44
2018-12-06T11:22:44.466Z,28.26
2018-12-06T11:25:13.480Z,25.39
2018-12-06T11:27:42.320Z,23.84
2018-12-06T11:30:11.636Z,23.93
2018-12-06T11:32:40.525Z,22.91
2018-12-06T11:35:09.455Z,21.73
2018-12-06T11:37:38.288Z,22.11
2018-12-06T11:40:07.258Z,21.82
2018-12-06T11:42:36.162Z,23.72
2018-12-06T11:45:05.906Z,25.51
2018-12-06T11:47:34.797Z,27.65
2018-12-06T11:50:03.687Z,28.15
2018-12-06T11:52:32.544Z,26.52
2018-12-06T11:55:01.468Z,28.05
2018-12-06T11:57:30.427Z,28.66
2018-12-06T11:59:59.269Z,31.02
2018-12-06T12:02:28.167Z,32.66
2018-12-06T12:04:57.026Z,34.34
2018-12-06T12:07:25.941Z,35.22
2018-12-06T12:09:54.854Z,32.07
2018-12-06T12:12:23.727Z,28.61
2018-12-06T12:14:52.736Z,26.05
2018-12-06T12:17:21.590Z,25.60
2018-12-06T12:19:50.467Z,25.28
2018-12-06T12:22:19.461Z,25.26
2018-12-06T12:24:48.442Z,23.80
2018-12-06T12:27:17.359Z,23.07
2018-12-06T12:29:46.364Z,22.25
2018-12-06T12:32:15.223Z,22.49
2018-12-06T12:34:44.012Z,23.26
2018-12-06T12:37:12.867Z,22.73
2018-12-06T12:39:41.827Z,21.64
2018-12-06T12:42:10.863Z,22.25
2018-12-06T12:44:39.775Z,22.10
2018-12-06T12:47:08.706Z,21.82
2018-12-06T12:49:37.556Z,22.28
2018-12-06T12:52:06.369Z,20.49
2018-12-06T12:54:35.541Z,21.99
2018-12-06T12:57:04.417Z,22.67
2018-12-06T12:59:33.362Z,22.47
2018-12-06T13:02:02.349Z,22.77
2018-12-06T13:04:31.228Z,24.20
2018-12-06T13:07:12.175Z,25.14
2018-12-06T13:09:41.092Z,24.70
2018-12-06T13:12:09.910Z,25.44
2018-12-06T13:14:38.884Z,27.31
2018-12-06T13:17:07.755Z,29.87
2018-12-06T13:19:36.726Z,30.11
2018-12-06T13:22:05.617Z,29.12
2018-12-06T13:24:34.481Z,30.28
2018-12-06T13:27:03.499Z,32.81
2018-12-06T13:29:32.469Z,35.75
2018-12-06T13:32:01.328Z,37.02
2018-12-06T13:34:30.167Z,37.82
2018-12-06T13:36:58.954Z,39.68
2018-12-06T13:39:27.937Z,42.29
2018-12-06T13:41:56.750Z,43.39
2018-12-06T13:44:25.665Z,45.03
2018-12-06T13:46:54.592Z,47.52
2018-12-06T13:49:23.405Z,48.76
2018-12-06T13:51:52.416Z,49.02
2018-12-06T13:54:26.975Z,49.25
2018-12-06T13:56:52.711Z,49.01
2018-12-06T13:59:21.525Z,49.36
2018-12-06T14:01:50.488Z,49.24
2018-12-06T14:04:19.407Z,50.01
2018-12-06T14:06:48.171Z,50.74
2018-12-06T14:09:17.264Z,51.49
2018-12-06T14:11:46.572Z,52.58
2018-12-06T14:14:15.531Z,53.09
2018-12-06T14:16:44.780Z,54.05
2018-12-06T14:19:13.963Z,54.82
2018-12-06T14:21:43.252Z,55.08
2018-12-06T14:24:12.469Z,54.71
2018-12-06T14:26:41.742Z,55.55
2018-12-06T14:29:10.500Z,55.49
2018-12-06T14:31:39.693Z,56.33
2018-12-06T14:34:08.871Z,57.88
2018-12-06T14:36:38.108Z,58.71
2018-12-06T14:39:09.564Z,59.49
2018-12-06T14:41:38.775Z,59.64
2018-12-06T14:44:07.889Z,59.62
2018-12-06T14:46:37.003Z,60.22
2018-12-06T14:49:05.898Z,60.42
2018-12-06T14:51:35.104Z,60.86
2018-12-06T14:54:04.552Z,61.41
2018-12-06T14:56:33.695Z,61.95
2018-12-06T14:59:02.839Z,61.95
2018-12-06T15:01:31.908Z,62.25
2018-12-06T15:04:01.263Z,62.86
2018-12-06T15:06:37.382Z,62.35
2018-12-06T15:09:01.342Z,61.90
2018-12-06T15:11:30.378Z,62.14
2018-12-06T15:13:59.507Z,62.74
2018-12-06T15:16:28.755Z,63.56
2018-12-06T15:18:57.904Z,63.24
2018-12-06T15:21:26.857Z,64.20
2018-12-06T15:23:56.053Z,64.40
2018-12-06T15:26:25.218Z,64.31
2018-12-06T15:28:54.297Z,64.94
2018-12-06T15:31:23.471Z,65.06
2018-12-06T15:33:52.455Z,64.97
2018-12-06T15:36:21.341Z,63.78
2018-12-06T15:38:50.304Z,64.16
2018-12-06T15:41:19.367Z,64.59
2018-12-06T15:43:48.484Z,65.15
2018-12-06T15:49:00.787Z,65.37
2018-12-06T15:51:29.859Z,65.97
2018-12-06T15:53:59.019Z,66.16
2018-12-06T15:56:28.146Z,66.43
2018-12-06T15:58:57.168Z,66.23
2018-12-06T16:01:26.249Z,65.99
2018-12-06T16:03:55.280Z,66.85
2018-12-06T16:06:24.480Z,67.78
2018-12-06T16:08:53.728Z,68.05
2018-12-06T16:11:22.868Z,68.62
2018-12-06T16:13:52.029Z,68.55
2018-12-06T16:16:21.368Z,68.79
2018-12-06T16:18:50.954Z,69.03
2018-12-06T16:21:20.124Z,68.70
2018-12-06T16:23:49.239Z,69.11
2018-12-06T16:26:18.416Z,69.47
2018-12-06T16:28:47.603Z,69.83
2018-12-06T16:31:16.763Z,70.24
2018-12-06T16:33:45.999Z,70.78
2018-12-06T16:36:15.214Z,70.29
2018-12-06T16:38:43.962Z,70.87
2018-12-06T16:41:13.169Z,70.89
2018-12-06T16:43:42.307Z,71.01
2018-12-06T16:46:11.884Z,71.41
2018-12-06T16:48:41.096Z,71.52
2018-12-06T16:51:10.183Z,71.29
2018-12-06T16:53:38.995Z,71.26
2018-12-06T16:56:08.217Z,71.50
2018-12-06T16:58:37.250Z,71.93
2018-12-06T17:01:06.496Z,72.44
2018-12-06T17:03:35.295Z,72.69
2018-12-06T17:06:04.337Z,72.17
2018-12-06T17:08:33.488Z,71.92
2018-12-06T17:11:02.447Z,72.30
2018-12-06T17:13:31.456Z,72.75
2018-12-06T17:16:00.540Z,72.75
2018-12-06T17:18:29.767Z,72.51
2018-12-06T17:20:59.051Z,72.25
2018-12-06T17:23:28.256Z,72.54
2018-12-06T17:25:57.413Z,72.69
2018-12-06T17:28:26.309Z,72.78
2018-12-06T17:30:55.387Z,72.94
2018-12-06T17:33:24.583Z,72.92
2018-12-06T17:35:53.748Z,73.28
2018-12-06T17:38:22.971Z,72.58
2018-12-06T17:40:52.081Z,73.01
2018-12-06T17:43:20.918Z,72.97
2018-12-06T17:45:50.005Z,72.71
2018-12-06T17:48:18.982Z,72.59
2018-12-06T17:50:47.881Z,72.61
2018-12-06T17:53:17.135Z,72.48
2018-12-06T17:55:56.547Z,72.64
2018-12-06T17:58:25.566Z,73.65
2018-12-06T18:00:55.148Z,74.10
2018-12-06T18:03:25.470Z,74.47
2018-12-06T18:05:54.332Z,75.14
2018-12-06T18:08:23.157Z,75.11
2018-12-06T18:10:52.356Z,74.89
2018-12-06T18:13:21.491Z,74.75
2018-12-06T18:15:51.463Z,74.82
2018-12-06T18:18:20.646Z,75.26
2018-12-06T18:20:49.990Z,74.99
2018-12-06T18:23:19.045Z,74.90
2018-12-06T18:25:48.162Z,74.93
2018-12-06T18:28:17.217Z,75.13
2018-12-06T18:30:47.099Z,75.00
2018-12-06T18:33:16.503Z,75.20
2018-12-06T18:35:45.667Z,74.80
2018-12-06T18:38:14.926Z,75.39
2018-12-06T18:40:44.005Z,75.40
2018-12-06T18:43:12.924Z,75.63
2018-12-06T18:45:41.743Z,75.65
2018-12-06T18:48:10.703Z,75.67
2018-12-06T18:50:39.632Z,76.12
2018-12-06T18:53:08.484Z,76.61
2018-12-06T18:55:37.715Z,76.71
2018-12-06T18:58:06.854Z,76.72
2018-12-06T19:00:36.073Z,76.43
2018-12-06T19:03:05.379Z,76.06
2018-12-06T19:05:34.408Z,75.83
2018-12-06T19:08:03.292Z,75.35
2018-12-06T19:10:32.494Z,75.31
2018-12-06T19:13:01.580Z,75.56
2018-12-06T19:15:30.856Z,76.00
2018-12-06T19:18:00.232Z,75.60
2018-12-06T19:20:29.290Z,76.18
2018-12-06T19:22:58.437Z,76.00
2018-12-06T19:25:27.253Z,75.92
2018-12-06T19:27:56.453Z,75.71
2018-12-06T19:30:25.812Z,75.37
2018-12-06T19:32:57.870Z,75.15
2018-12-06T19:35:25.941Z,75.60
2018-12-06T19:37:55.043Z,75.39
2018-12-06T19:40:23.972Z,75.55
2018-12-06T19:42:52.942Z,76.06
2018-12-06T19:45:21.801Z,75.99
2018-12-06T19:47:50.855Z,75.69
2018-12-06T19:50:19.956Z,75.69
2018-12-06T19:52:49.111Z,75.67
2018-12-06T19:55:19.423Z,75.58
2018-12-06T19:57:48.710Z,75.79
2018-12-06T20:00:18.124Z,75.97
2018-12-06T20:02:46.967Z,76.99
2018-12-06T20:05:15.886Z,77.63
2018-12-06T20:07:44.779Z,78.59
2018-12-06T20:10:14.211Z,79.34
2018-12-06T20:12:43.074Z,79.50
2018-12-06T20:15:11.931Z,79.95
2018-12-06T20:17:41.580Z,79.79
2018-12-06T20:20:10.372Z,80.27
2018-12-06T20:22:39.348Z,80.13
2018-12-06T20:25:08.367Z,79.71
2018-12-06T20:27:37.274Z,78.69
2018-12-06T20:30:06.651Z,77.86
2018-12-06T20:32:35.753Z,77.62
2018-12-06T20:35:05.078Z,77.69
2018-12-06T20:37:33.940Z,77.89
2018-12-06T20:40:02.911Z,77.59
2018-12-06T20:42:31.715Z,77.49
2018-12-06T20:45:00.610Z,77.96
2018-12-06T20:47:29.602Z,78.03
2018-12-06T20:49:58.363Z,78.03
2018-12-06T20:52:27.245Z,77.67
2018-12-06T20:54:56.067Z,77.69
2018-12-06T20:57:24.919Z,77.52
2018-12-06T20:59:53.743Z,77.63
2018-12-06T21:02:22.654Z,77.65
2018-12-06T21:04:51.629Z,77.90
2018-12-06T21:07:20.422Z,78.30
2018-12-06T21:09:49.229Z,78.54
2018-12-06T21:12:18.091Z,78.52
2018-12-06T21:14:46.959Z,78.92
2018-12-06T21:17:15.873Z,79.00
2018-12-06T21:19:44.744Z,78.90
2018-12-06T21:22:13.695Z,79.47
2018-12-06T21:24:42.679Z,79.81
2018-12-06T21:27:11.545Z,79.75
2018-12-06T21:29:40.396Z,79.96
2018-12-06T21:32:09.272Z,79.91
2018-12-06T21:34:38.284Z,79.79
2018-12-06T21:37:07.093Z,79.73
2018-12-06T21:39:36.011Z,79.82
2018-12-06T21:42:04.996Z,80.13
2018-12-06T21:44:33.856Z,80.26
2018-12-06T21:47:02.651Z,80.62
2018-12-06T21:49:31.647Z,80.68
2018-12-06T21:52:00.637Z,81.12
2018-12-06T21:54:29.495Z,81.29
2018-12-06T21:56:58.273Z,81.71
2018-12-06T21:59:27.139Z,81.52
2018-12-06T22:02:05.720Z,81.87
2018-12-06T22:04:34.583Z,81.71
2018-12-06T22:07:03.528Z,81.99
2018-12-06T22:09:32.410Z,81.69
2018-12-06T22:12:01.233Z,81.34
2018-12-06T22:14:30.068Z,80.93
2018-12-06T22:16:58.862Z,80.71
2018-12-06T22:19:27.764Z,80.61
2018-12-06T22:21:56.654Z,80.16
2018-12-06T22:24:25.430Z,79.54
2018-12-06T22:26:54.334Z,79.22
2018-12-06T22:29:23.078Z,79.25
2018-12-06T22:31:51.944Z,78.98
2018-12-06T22:34:20.695Z,78.53
2018-12-06T22:36:49.644Z,78.93
2018-12-06T22:39:18.632Z,78.86
2018-12-06T22:41:47.451Z,78.94
2018-12-06T22:44:16.346Z,78.63
2018-12-06T22:46:45.145Z,78.33
2018-12-06T22:49:14.111Z,78.30
2018-12-06T22:51:42.966Z,78.45
2018-12-06T22:54:12.007Z,78.76
2018-12-06T22:56:40.841Z,78.76
2018-12-06T22:59:09.778Z,78.73
2018-12-06T23:01:40.981Z,78.74
2018-12-06T23:04:10.247Z,79.21
2018-12-06T23:06:39.301Z,79.23
2018-12-06T23:09:09.826Z,79.54
2018-12-06T23:11:39.448Z,79.78
2018-12-06T23:14:08.399Z,80.03
2018-12-06T23:16:37.534Z,79.85
2018-12-06T23:19:06.630Z,79.97
2018-12-06T23:21:35.519Z,79.83
2018-12-06T23:24:04.410Z,80.13
2018-12-06T23:26:33.295Z,79.91
2018-12-06T23:29:02.111Z,79.87
2018-12-06T23:31:30.948Z,79.92
2018-12-06T23:33:59.842Z,79.66
2018-12-06T23:36:28.719Z,79.69
2018-12-06T23:38:57.567Z,79.84
2018-12-06T23:41:26.536Z,79.95
2018-12-06T23:43:55.373Z,79.83
2018-12-06T23:46:24.316Z,79.96
2018-12-06T23:48:53.107Z,79.89
2018-12-06T23:51:40.119Z,80.20
2018-12-06T23:54:08.927Z,80.36
2018-12-06T23:56:37.779Z,80.34
2018-12-06T23:59:06.592Z,80.40
